Time;durP1;ratioP1;P1;durP2;ratioP2;P2;SDS_P1;SDS_P2;PMS_P1;PMS_P2;Temp;Humidity;BMP_temperature;BMP_pressure;BME280_temperature;BME280_humidity;BME280_pressure;Samples;Min_cycle;Max_cycle;Signal;HPM_P1;HPM_P2
2022/04/15 00:00:00;;;;;;;11.68;4.80;;;;;;;;;;5030440;28;20061;-59
2022/04/15 00:02:27;;;;;;;10.13;4.38;;;;;;;;;;5046491;28;20130;-59
2022/04/15 00:04:53;;;;;;;11.15;5.20;;;;;;;;;;5025232;28;20061;-58
2022/04/15 00:07:20;;;;;;;9.25;4.68;;;;;;;;;;5030213;28;20057;-58
2022/04/15 00:09:46;;;;;;;13.00;5.88;;;;;;;;;;5020412;28;20052;-59
2022/04/15 00:12:17;;;;;;;10.07;4.43;;;;;;;;;;5046334;28;20126;-59
2022/04/15 00:14:44;;;;;;;12.93;5.82;;;;;;;;;;5024012;28;20059;-58
2022/04/15 00:17:13;;;;;;;10.60;5.20;;;;;;;;;;5031164;28;20107;-58
2022/04/15 00:19:39;;;;;;;11.15;4.60;;;;;;;;;;5025525;28;20053;-59
2022/04/15 00:22:05;;;;;;;10.82;5.05;;;;;;;;;;5030306;28;20057;-58
2022/04/15 00:24:32;;;;;;;15.10;5.80;;;;;;;;;;5027331;28;20067;-59
2022/04/15 00:26:58;;;;;;;10.68;4.45;;;;;;;;;;5030583;28;20050;-59
2022/04/15 00:29:28;;;;;;;17.02;6.00;;;;;;;;;;5013972;28;20069;-58
2022/04/15 00:31:54;;;;;;;14.50;5.32;;;;;;;;;;5026423;28;20148;-59
2022/04/15 00:34:22;;;;;;;10.90;4.63;;;;;;;;;;5032855;28;20081;-59
2022/04/15 00:36:49;;;;;;;16.88;6.28;;;;;;;;;;5028524;28;20041;-60
2022/04/15 00:39:16;;;;;;;11.93;4.68;;;;;;;;;;5032822;28;20079;-60
2022/04/15 00:41:45;;;;;;;9.32;4.30;;;;;;;;;;5027796;28;20200;-59
2022/04/15 00:44:11;;;;;;;10.07;4.97;;;;;;;;;;5033280;28;20052;-60
2022/04/15 00:46:40;;;;;;;12.88;6.28;;;;;;;;;;5044194;28;20056;-60
2022/04/15 00:49:06;;;;;;;9.55;4.28;;;;;;;;;;5033051;28;20057;-63
2022/04/15 00:51:36;;;;;;;18.30;5.80;;;;;;;;;;5028365;28;20044;-59
2022/04/15 00:54:03;;;;;;;12.13;5.07;;;;;;;;;;5033452;28;20049;-60
2022/04/15 00:56:32;;;;;;;15.43;6.13;;;;;;;;;;5028002;28;20143;-62
2022/04/15 00:59:01;;;;;;;11.05;5.00;;;;;;;;;;5033323;28;20060;-58
2022/04/15 01:01:27;;;;;;;10.55;4.55;;;;;;;;;;5043959;28;20056;-61
2022/04/15 01:03:55;;;;;;;11.05;4.53;;;;;;;;;;5030345;28;20045;-62
2022/04/15 01:06:23;;;;;;;14.30;6.22;;;;;;;;;;5011433;28;20079;-59
2022/04/15 01:08:49;;;;;;;;;;;;;;;;;;5033432;28;20045;-58
2022/04/15 01:11:19;;;;;;;11.23;5.03;;;;;;;;;;5029920;28;19925;-62
2022/04/15 01:13:46;;;;;;;11.85;4.40;;;;;;;;;;5031917;28;20045;-58
2022/04/15 01:16:13;;;;;;;12.55;4.57;;;;;;;;;;5049553;28;20053;-60
2022/04/15 01:18:40;;;;;;;10.32;4.57;;;;;;;;;;5026654;28;20065;-58
2022/04/15 01:21:08;;;;;;;10.40;5.13;;;;;;;;;;5032236;28;20068;-58
2022/04/15 01:23:36;;;;;;;18.80;7.87;;;;;;;;;;5026674;28;20057;-61
2022/04/15 01:26:02;;;;;;;13.18;5.45;;;;;;;;;;5030928;28;20051;-58
2022/04/15 01:28:29;;;;;;;13.00;4.80;;;;;;;;;;5026966;28;20067;-59
2022/04/15 01:30:55;;;;;;;17.00;6.47;;;;;;;;;;5032669;28;20061;-58
2022/04/15 01:33:22;;;;;;;15.82;7.25;;;;;;;;;;5043535;28;20088;-60
2022/04/15 01:35:49;;;;;;;12.70;5.22;;;;;;;;;;5030802;28;20057;-61
2022/04/15 01:38:17;;;;;;;11.05;5.18;;;;;;;;;;5043575;28;20037;-62
2022/04/15 01:40:45;;;;;;;12.95;5.18;;;;;;;;;;5048524;28;20063;-58
2022/04/15 01:43:12;;;;;;;11.23;5.00;;;;;;;;;;5026439;28;20056;-60
2022/04/15 01:45:38;;;;;;;11.70;6.25;;;;;;;;;;5032044;28;20080;-61
2022/04/15 01:48:05;;;;;;;10.65;5.32;;;;;;;;;;5043168;28;20052;-59
2022/04/15 01:50:32;;;;;;;10.30;4.63;;;;;;;;;;5031946;28;20044;-62
2022/04/15 01:52:59;;;;;;;8.93;4.57;;;;;;;;;;5054422;28;20060;-61
2022/04/15 01:55:27;;;;;;;15.02;5.20;;;;;;;;;;5049023;28;20051;-63
2022/04/15 01:57:55;;;;;;;10.52;4.47;;;;;;;;;;5032163;28;20060;-61
2022/04/15 02:00:22;;;;;;;14.80;5.13;;;;;;;;;;5043735;28;20053;-60
2022/04/15 02:02:49;;;;;;;12.07;4.78;;;;;;;;;;5032636;28;20057;-60
2022/04/15 02:05:17;;;;;;;9.57;4.82;;;;;;;;;;5026986;28;20099;-59
2022/04/15 02:07:43;;;;;;;10.35;4.55;;;;;;;;;;5032291;28;20057;-60
2022/04/15 02:10:10;;;;;;;10.85;4.20;;;;;;;;;;5026188;28;20053;-59
2022/04/15 02:12:37;;;;;;;8.90;4.20;;;;;;;;;;5048146;28;20060;-63
2022/04/15 02:15:06;;;;;;;9.45;5.10;;;;;;;;;;5042860;28;20057;-59
2022/04/15 02:17:33;;;;;;;12.43;4.43;;;;;;;;;;5031794;28;20056;-61
2022/04/15 02:19:59;;;;;;;10.40;4.68;;;;;;;;;;5038881;28;20061;-61
2022/04/15 02:22:26;;;;;;;8.18;3.75;;;;;;;;;;5028380;28;20053;-64
2022/04/15 02:24:53;;;;;;;8.93;4.25;;;;;;;;;;5012719;28;20063;-63
2022/04/15 02:27:20;;;;;;;13.10;4.95;;;;;;;;;;5031738;28;20064;-60
2022/04/15 02:29:46;;;;;;;8.52;4.05;;;;;;;;;;5025279;28;20059;-58
2022/04/15 02:32:14;;;;;;;9.82;5.40;;;;;;;;;;5032924;28;20091;-59
2022/04/15 02:34:59;;;;;;;12.32;5.25;;;;;;;;;;5018619;28;20057;-62
2022/04/15 02:37:26;;;;;;;9.52;4.97;;;;;;;;;;5031196;28;20072;-62
2022/04/15 02:39:53;;;;;;;8.68;4.25;;;;;;;;;;5025922;28;20049;-61
2022/04/15 02:42:21;;;;;;;9.75;5.00;;;;;;;;;;5031518;28;20067;-64
2022/04/15 02:44:47;;;;;;;11.25;4.65;;;;;;;;;;5048169;28;20052;-60
2022/04/15 02:47:16;;;;;;;8.82;4.53;;;;;;;;;;5024997;28;20053;-61
2022/04/15 02:49:42;;;;;;;13.60;4.50;;;;;;;;;;5047799;28;20171;-60
2022/04/15 02:52:09;;;;;;;10.10;4.47;;;;;;;;;;5042399;28;20049;-58
2022/04/15 02:54:35;;;;;;;9.05;3.97;;;;;;;;;;5031460;28;20099;-58
2022/04/15 02:57:03;;;;;;;10.73;4.90;;;;;;;;;;5025254;28;20072;-63
2022/04/15 02:59:31;;;;;;;9.93;4.07;;;;;;;;;;5029998;28;20182;-59
2022/04/15 03:01:57;;;;;;;8.48;3.80;;;;;;;;;;5025127;28;20052;-60
2022/04/15 03:04:25;;;;;;;8.80;4.18;;;;;;;;;;5019109;28;20057;-59
2022/04/15 03:06:52;;;;;;;10.35;4.88;;;;;;;;;;5029549;28;20049;-60
2022/04/15 03:09:19;;;;;;;7.93;4.50;;;;;;;;;;5023021;28;20065;-59
2022/04/15 03:11:47;;;;;;;;;;;;;;;;;;5008631;28;20210;-60
2022/04/15 03:14:17;;;;;;;9.65;4.22;;;;;;;;;;5030053;28;19925;-59
2022/04/15 03:16:44;;;;;;;11.00;4.30;;;;;;;;;;5025339;28;20139;-59
2022/04/15 03:19:10;;;;;;;10.50;4.75;;;;;;;;;;5019775;28;20114;-58
2022/04/15 03:21:38;;;;;;;9.55;4.63;;;;;;;;;;5029627;28;20114;-60
2022/04/15 03:24:05;;;;;;;9.23;3.60;;;;;;;;;;5017209;28;20067;-63
2022/04/15 03:26:32;;;;;;;9.40;4.07;;;;;;;;;;5029400;28;20057;-58
2022/04/15 03:28:59;;;;;;;7.97;3.88;;;;;;;;;;5031904;28;20057;-60
2022/04/15 03:31:25;;;;;;;10.15;4.53;;;;;;;;;;5029543;28;20053;-60
2022/04/15 03:33:52;;;;;;;8.55;4.43;;;;;;;;;;5027047;28;20125;-60
2022/04/15 03:36:19;;;;;;;10.20;4.35;;;;;;;;;;5031108;28;20067;-57
2022/04/15 03:38:47;;;;;;;11.52;4.78;;;;;;;;;;5029081;28;20139;-60
2022/04/15 03:41:13;;;;;;;9.90;4.23;;;;;;;;;;5017407;28;20056;-60
2022/04/15 03:43:40;;;;;;;13.57;5.43;;;;;;;;;;5029084;28;20349;-62
2022/04/15 03:46:07;;;;;;;10.73;4.60;;;;;;;;;;5035674;28;20072;-60
2022/04/15 03:48:34;;;;;;;10.63;4.43;;;;;;;;;;5026382;28;20068;-61
2022/04/15 03:51:00;;;;;;;8.75;4.60;;;;;;;;;;5045787;28;20060;-59
2022/04/15 03:53:27;;;;;;;8.27;3.85;;;;;;;;;;5014890;28;20057;-61
2022/04/15 03:55:55;;;;;;;13.05;4.82;;;;;;;;;;5043245;28;20087;-58
2022/04/15 03:58:21;;;;;;;11.95;3.67;;;;;;;;;;5015606;28;20134;-59
2022/04/15 04:00:48;;;;;;;7.63;3.83;;;;;;;;;;5027309;28;20145;-59
2022/04/15 04:03:15;;;;;;;8.82;4.13;;;;;;;;;;5031221;28;20057;-59
2022/04/15 04:05:42;;;;;;;12.38;4.18;;;;;;;;;;5023547;28;20054;-59
2022/04/15 04:08:08;;;;;;;8.55;4.18;;;;;;;;;;5042940;28;20142;-57
2022/04/15 04:10:35;;;;;;;14.07;4.63;;;;;;;;;;5024367;28;20053;-60
2022/04/15 04:13:03;;;;;;;8.20;3.75;;;;;;;;;;5032128;28;20053;-60
2022/04/15 04:15:33;;;;;;;7.25;3.35;;;;;;;;;;5019895;28;20060;-62
2022/04/15 04:18:00;;;;;;;9.07;3.75;;;;;;;;;;5030024;28;20049;-62
2022/04/15 04:20:27;;;;;;;8.10;3.10;;;;;;;;;;5020342;28;20150;-60
2022/04/15 04:22:53;;;;;;;6.20;3.28;;;;;;;;;;5028669;28;20065;-58
2022/04/15 04:25:21;;;;;;;10.10;3.50;;;;;;;;;;5033723;28;20045;-59
2022/04/15 04:27:48;;;;;;;7.13;3.63;;;;;;;;;;5022205;28;20061;-58
2022/04/15 04:30:16;;;;;;;7.32;3.42;;;;;;;;;;5029138;28;20114;-57
2022/04/15 04:32:49;;;;;;;7.47;3.08;;;;;;;;;;5018736;28;20067;-58
2022/04/15 04:35:16;;;;;;;8.85;3.08;;;;;;;;;;5029966;28;20122;-58
2022/04/15 04:37:43;;;;;;;8.40;3.85;;;;;;;;;;5020754;28;20076;-59
2022/04/15 04:40:10;;;;;;;8.63;3.25;;;;;;;;;;5028423;28;20049;-59
2022/04/15 04:42:36;;;;;;;10.25;3.60;;;;;;;;;;5024657;28;20049;-62
2022/04/15 04:45:03;;;;;;;13.05;4.07;;;;;;;;;;5021600;28;20076;-58
2022/04/15 04:47:32;;;;;;;10.43;3.72;;;;;;;;;;5030637;28;20057;-58
2022/04/15 04:50:01;;;;;;;8.82;3.55;;;;;;;;;;5019786;28;20079;-62
2022/04/15 04:52:28;;;;;;;9.05;3.25;;;;;;;;;;5030579;28;20155;-59
2022/04/15 04:54:55;;;;;;;10.15;3.17;;;;;;;;;;5039153;28;20060;-60
2022/04/15 04:57:21;;;;;;;8.50;3.35;;;;;;;;;;5027623;28;20052;-59
2022/04/15 04:59:48;;;;;;;8.52;3.28;;;;;;;;;;5029982;28;20068;-63
2022/04/15 05:02:14;;;;;;;7.35;2.90;;;;;;;;;;5019937;28;20053;-62
2022/04/15 05:04:42;;;;;;;7.25;3.00;;;;;;;;;;5007159;28;20128;-60
2022/04/15 05:07:09;;;;;;;4.90;2.78;;;;;;;;;;4996923;28;20061;-63
2022/04/15 05:09:35;;;;;;;7.00;2.97;;;;;;;;;;5010171;28;20100;-58
2022/04/15 05:12:02;;;;;;;7.20;3.05;;;;;;;;;;5021594;28;20057;-60
2022/04/15 05:14:28;;;;;;;6.85;2.72;;;;;;;;;;4989239;28;20153;-61
2022/04/15 05:16:55;;;;;;;6.57;2.78;;;;;;;;;;5009808;28;20057;-59
2022/04/15 05:19:21;;;;;;;8.25;2.97;;;;;;;;;;4982958;28;20042;-57
2022/04/15 05:21:50;;;;;;;6.65;2.80;;;;;;;;;;4991830;28;20050;-62
2022/04/15 05:24:16;;;;;;;;;;;;;;;;;;5001325;28;20045;-58
2022/04/15 05:26:43;;;;;;;5.03;2.50;;;;;;;;;;5001077;28;19925;-61
2022/04/15 05:29:10;;;;;;;7.88;2.40;;;;;;;;;;4986114;28;20081;-60
2022/04/15 05:31:36;;;;;;;5.40;2.45;;;;;;;;;;5007254;28;20073;-59
2022/04/15 05:34:03;;;;;;;5.28;2.63;;;;;;;;;;4983875;28;20116;-60
2022/04/15 05:36:30;;;;;;;5.78;2.63;;;;;;;;;;5006808;28;20053;-59
2022/04/15 05:38:58;;;;;;;6.10;2.85;;;;;;;;;;5007311;28;20049;-59
2022/04/15 05:41:24;;;;;;;8.30;2.78;;;;;;;;;;5002490;28;20068;-58
2022/04/15 05:43:51;;;;;;;5.70;2.80;;;;;;;;;;4993639;28;20085;-61
2022/04/15 05:46:19;;;;;;;5.40;2.70;;;;;;;;;;4984737;28;20049;-58
2022/04/15 05:48:45;;;;;;;6.95;2.88;;;;;;;;;;5006483;28;20165;-62
2022/04/15 05:51:12;;;;;;;5.75;2.75;;;;;;;;;;4999526;28;20134;-63
2022/04/15 05:53:38;;;;;;;8.45;3.35;;;;;;;;;;4991479;28;20056;-63
2022/04/15 05:56:06;;;;;;;10.20;2.90;;;;;;;;;;4983049;28;20050;-59
2022/04/15 05:58:33;;;;;;;6.15;2.45;;;;;;;;;;4990532;28;20084;-59
2022/04/15 06:01:00;;;;;;;7.22;2.72;;;;;;;;;;4999107;28;20072;-59
2022/04/15 06:03:32;;;;;;;5.50;2.70;;;;;;;;;;5005400;28;20116;-60
2022/04/15 06:06:00;;;;;;;9.32;2.63;;;;;;;;;;4999980;28;20081;-63
2022/04/15 06:08:27;;;;;;;5.95;2.15;;;;;;;;;;4991571;28;20141;-62
2022/04/15 06:10:53;;;;;;;8.23;2.60;;;;;;;;;;4984825;28;20061;-63
2022/04/15 06:13:22;;;;;;;7.90;2.50;;;;;;;;;;4991886;28;20049;-60
2022/04/15 06:15:52;;;;;;;8.90;2.10;;;;;;;;;;5001677;28;20120;-58
2022/04/15 06:18:19;;;;;;;7.40;2.60;;;;;;;;;;5007377;28;20064;-62
2022/04/15 06:20:46;;;;;;;5.43;2.25;;;;;;;;;;4985617;28;20086;-60
2022/04/15 06:23:13;;;;;;;6.25;2.85;;;;;;;;;;4991369;28;20057;-58
2022/04/15 06:25:40;;;;;;;5.25;2.17;;;;;;;;;;4982762;28;20094;-63
2022/04/15 06:28:07;;;;;;;6.50;2.20;;;;;;;;;;5002409;28;20054;-58
2022/04/15 06:30:35;;;;;;;5.78;2.08;;;;;;;;;;4991385;28;20058;-62
2022/04/15 06:33:02;;;;;;;6.22;2.20;;;;;;;;;;4985495;28;20053;-57
2022/04/15 06:35:30;;;;;;;5.57;2.38;;;;;;;;;;4991554;28;20060;-61
2022/04/15 06:37:56;;;;;;;4.53;2.17;;;;;;;;;;4978580;28;20100;-60
2022/04/15 06:40:25;;;;;;;3.67;1.85;;;;;;;;;;4992416;28;20050;-58
2022/04/15 06:42:52;;;;;;;5.32;1.98;;;;;;;;;;5001399;28;20053;-57
2022/04/15 06:45:19;;;;;;;5.45;1.88;;;;;;;;;;5008195;28;20109;-59
2022/04/15 06:47:47;;;;;;;9.80;2.28;;;;;;;;;;4981169;28;20049;-62
2022/04/15 06:50:15;;;;;;;5.20;1.98;;;;;;;;;;4990871;28;20049;-59
2022/04/15 06:52:42;;;;;;;3.80;1.60;;;;;;;;;;4986146;28;20101;-58
2022/04/15 06:55:10;;;;;;;3.13;1.75;;;;;;;;;;4991429;28;20050;-61
2022/04/15 06:57:36;;;;;;;6.15;2.58;;;;;;;;;;5003450;28;20072;-59
2022/04/15 07:00:05;;;;;;;4.78;2.10;;;;;;;;;;5007930;28;20053;-60
2022/04/15 07:02:33;;;;;;;6.72;2.28;;;;;;;;;;4990824;28;20069;-62
2022/04/15 07:05:01;;;;;;;3.80;1.88;;;;;;;;;;5031739;28;20063;-61
2022/04/15 07:07:28;;;;;;;5.88;2.20;;;;;;;;;;5019588;28;20067;-59
2022/04/15 07:09:54;;;;;;;4.25;2.00;;;;;;;;;;5029364;28;20053;-60
2022/04/15 07:12:21;;;;;;;7.25;2.10;;;;;;;;;;5033628;28;20056;-59
2022/04/15 07:14:48;;;;;;;4.55;2.10;;;;;;;;;;5027754;28;20088;-61
2022/04/15 07:17:14;;;;;;;3.25;1.45;;;;;;;;;;5031355;28;20072;-63
2022/04/15 07:19:41;;;;;;;6.22;2.17;;;;;;;;;;5023072;28;20070;-59
2022/04/15 07:22:09;;;;;;;5.95;1.65;;;;;;;;;;5024305;28;20055;-60
2022/04/15 07:24:35;;;;;;;5.53;1.93;;;;;;;;;;5017362;28;20076;-59
2022/04/15 07:27:03;;;;;;;4.00;2.17;;;;;;;;;;5030505;28;20307;-60
2022/04/15 07:29:30;;;;;;;3.92;1.90;;;;;;;;;;5037444;28;20049;-62
2022/04/15 07:31:56;;;;;;;5.35;1.92;;;;;;;;;;5026982;28;20068;-64
2022/04/15 07:34:23;;;;;;;4.18;1.95;;;;;;;;;;5011613;28;20079;-61
2022/04/15 07:36:54;;;;;;;3.75;1.55;;;;;;;;;;5029829;28;20048;-61
2022/04/15 07:39:23;;;;;;;4.85;1.70;;;;;;;;;;5023398;28;20143;-61
2022/04/15 07:41:50;;;;;;;4.50;1.90;;;;;;;;;;5029130;28;20148;-60
2022/04/15 07:44:16;;;;;;;4.25;1.80;;;;;;;;;;5024226;28;20053;-61
2022/04/15 07:46:44;;;;;;;4.88;1.70;;;;;;;;;;5029559;28;20059;-61
2022/04/15 07:49:11;;;;;;;4.93;2.13;;;;;;;;;;5024301;28;20045;-59
2022/04/15 07:51:38;;;;;;;4.82;1.98;;;;;;;;;;5029636;28;20076;-62
2022/04/15 07:54:05;;;;;;;6.18;1.70;;;;;;;;;;5032068;28;20095;-60
2022/04/15 07:56:35;;;;;;;7.72;1.83;;;;;;;;;;5028951;28;20049;-59
2022/04/15 07:59:02;;;;;;;6.93;2.00;;;;;;;;;;5031848;28;20041;-59
2022/04/15 08:01:28;;;;;;;5.13;1.77;;;;;;;;;;5023503;28;20044;-60
2022/04/15 08:03:55;;;;;;;4.20;1.55;;;;;;;;;;5023801;28;20110;-62
2022/04/15 08:06:23;;;;;;;6.82;1.85;;;;;;;;;;5018786;28;20049;-61
2022/04/15 08:08:50;;;;;;;5.63;1.90;;;;;;;;;;5028537;28;20059;-59
2022/04/15 08:11:16;;;;;;;5.10;1.73;;;;;;;;;;5032985;28;20053;-60
2022/04/15 08:13:44;;;;;;;3.38;1.70;;;;;;;;;;5028929;28;20049;-59
2022/04/15 08:16:13;;;;;;;3.30;1.60;;;;;;;;;;5017669;28;20123;-61
2022/04/15 08:18:40;;;;;;;4.57;1.90;;;;;;;;;;5026771;28;20053;-58
2022/04/15 08:21:07;;;;;;;3.92;1.75;;;;;;;;;;5028598;28;20076;-59
2022/04/15 08:23:34;;;;;;;3.92;1.50;;;;;;;;;;5017251;28;20056;-60
2022/04/15 08:26:00;;;;;;;3.90;1.40;;;;;;;;;;5029106;28;20053;-61
2022/04/15 08:28:27;;;;;;;4.70;1.52;;;;;;;;;;5032206;28;20056;-60
2022/04/15 08:30:55;;;;;;;3.33;1.58;;;;;;;;;;5025007;28;20052;-62
2022/04/15 08:33:23;;;;;;;3.10;1.65;;;;;;;;;;5018189;28;20055;-62
2022/04/15 08:35:50;;;;;;;7.18;1.50;;;;;;;;;;5025111;28;20084;-58
2022/04/15 08:38:18;;;;;;;4.65;1.92;;;;;;;;;;5045372;28;20045;-59
2022/04/15 08:40:47;;;;;;;3.83;1.63;;;;;;;;;;5016261;28;20048;-61
2022/04/15 08:43:13;;;;;;;;;;;;;;;;;;5028045;28;20049;-62
2022/04/15 08:45:41;;;;;;;4.15;1.90;;;;;;;;;;5017850;28;19932;-57
2022/04/15 08:48:09;;;;;;;3.72;1.77;;;;;;;;;;5032338;28;20055;-60
2022/04/15 08:50:36;;;;;;;3.45;1.52;;;;;;;;;;5040996;28;20147;-59
2022/04/15 08:53:03;;;;;;;6.22;1.95;;;;;;;;;;5028579;28;20056;-60
2022/04/15 08:55:31;;;;;;;5.47;1.73;;;;;;;;;;5031237;28;20067;-61
2022/04/15 08:57:57;;;;;;;4.50;1.33;;;;;;;;;;5016601;28;20052;-63
2022/04/15 09:00:25;;;;;;;2.90;1.65;;;;;;;;;;5030416;28;20057;-62
2022/04/15 09:02:52;;;;;;;5.45;1.70;;;;;;;;;;5016904;28;20053;-60
2022/04/15 09:05:21;;;;;;;3.28;1.60;;;;;;;;;;5028192;28;20061;-60
2022/04/15 09:07:48;;;;;;;5.80;1.88;;;;;;;;;;5023599;28;20052;-58
2022/04/15 09:10:16;;;;;;;3.35;1.58;;;;;;;;;;5022439;28;20057;-60
2022/04/15 09:12:45;;;;;;;4.65;1.52;;;;;;;;;;5029898;28;20081;-60
2022/04/15 09:15:14;;;;;;;3.80;1.50;;;;;;;;;;5031613;28;20061;-59
2022/04/15 09:17:41;;;;;;;2.78;1.48;;;;;;;;;;5006973;28;20068;-61
2022/04/15 09:20:09;;;;;;;2.83;1.50;;;;;;;;;;5020867;28;20053;-59
2022/04/15 09:22:37;;;;;;;5.43;1.73;;;;;;;;;;5045140;28;20061;-61
2022/04/15 09:25:06;;;;;;;6.25;2.00;;;;;;;;;;5020578;28;20121;-58
2022/04/15 09:27:35;;;;;;;1.88;1.25;;;;;;;;;;5012923;28;20064;-60
2022/04/15 09:30:01;;;;;;;3.25;1.40;;;;;;;;;;5007470;28;20056;-60
2022/04/15 09:32:29;;;;;;;3.67;1.73;;;;;;;;;;5011971;28;20096;-59
2022/04/15 09:34:58;;;;;;;4.65;1.55;;;;;;;;;;5022063;28;20053;-60
2022/04/15 09:37:24;;;;;;;;;;;;;;;;;;5012091;28;20053;-60
2022/04/15 09:40:05;;;;;;;3.00;1.70;;;;;;;;;;5011232;28;19949;-63
2022/04/15 09:42:34;;;;;;;5.28;2.40;;;;;;;;;;5023529;28;20041;-60
2022/04/15 09:45:16;;;;;;;4.13;1.70;;;;;;;;;;5045031;28;20057;-59
2022/04/15 09:47:43;;;;;;;6.72;2.25;;;;;;;;;;5040319;28;20060;-62
2022/04/15 09:50:21;;;;;;;7.85;2.05;;;;;;;;;;5023567;28;20049;-61
2022/04/15 09:52:47;;;;;;;2.75;1.38;;;;;;;;;;5038075;28;20073;-64
2022/04/15 09:55:18;;;;;;;4.75;2.00;;;;;;;;;;5009998;28;20057;-60
2022/04/15 09:57:47;;;;;;;6.45;2.13;;;;;;;;;;5019757;28;20152;-61
2022/04/15 10:00:14;;;;;;;2.67;1.60;;;;;;;;;;5011254;28;20060;-60
2022/04/15 10:02:42;;;;;;;4.82;1.80;;;;;;;;;;5022072;28;20053;-60
2022/04/15 10:05:09;;;;;;;5.35;1.77;;;;;;;;;;5039695;28;20057;-60
2022/04/15 10:07:37;;;;;;;7.75;2.13;;;;;;;;;;5003737;28;20073;-61
2022/04/15 10:10:04;;;;;;;4.67;1.90;;;;;;;;;;5027313;28;20050;-58
2022/04/15 10:12:37;;;;;;;7.10;2.20;;;;;;;;;;5005696;28;20048;-61
2022/04/15 10:15:05;;;;;;;3.80;1.60;;;;;;;;;;5027144;28;20070;-60
2022/04/15 10:17:32;;;;;;;2.72;1.38;;;;;;;;;;5020975;28;20167;-64
2022/04/15 10:20:00;;;;;;;3.03;1.65;;;;;;;;;;5003566;28;20096;-58
2022/04/15 10:22:27;;;;;;;4.57;1.65;;;;;;;;;;5022254;28;20064;-60
2022/04/15 10:24:54;;;;;;;4.07;1.65;;;;;;;;;;5011543;28;20157;-59
2022/04/15 10:27:24;;;;;;;2.15;1.52;;;;;;;;;;5005039;28;20041;-58
2022/04/15 10:30:01;;;;;;;4.47;1.83;;;;;;;;;;5025589;28;20061;-63
2022/04/15 10:32:27;;;;;;;5.25;1.83;;;;;;;;;;5004059;28;20057;-61
2022/04/15 10:34:54;;;;;;;5.38;2.08;;;;;;;;;;5010802;28;20133;-59
2022/04/15 10:37:36;;;;;;;4.80;1.58;;;;;;;;;;5005105;28;20057;-60
2022/04/15 10:40:21;;;;;;;4.68;2.05;;;;;;;;;;5025238;28;20166;-60
2022/04/15 10:42:48;;;;;;;5.15;1.85;;;;;;;;;;5020763;28;20057;-60
2022/04/15 10:45:27;;;;;;;2.38;1.20;;;;;;;;;;5009410;28;20059;-63
2022/04/15 10:48:00;;;;;;;6.25;1.98;;;;;;;;;;5004663;28;20053;-62
2022/04/15 10:50:27;;;;;;;7.38;2.30;;;;;;;;;;5008550;28;20104;-59
2022/04/15 10:53:14;;;;;;;6.38;2.55;;;;;;;;;;5021744;28;20049;-61
2022/04/15 10:55:49;;;;;;;3.70;1.60;;;;;;;;;;5011267;28;20056;-62
2022/04/15 10:58:16;;;;;;;4.38;2.17;;;;;;;;;;5022188;28;20096;-60
2022/04/15 11:03:29;;;;;;;4.60;2.17;;;;;;;;;;5002053;28;20065;-59
2022/04/15 11:05:57;;;;;;;2.65;1.33;;;;;;;;;;5003504;28;20068;-56
2022/04/15 11:08:24;;;;;;;7.17;2.40;;;;;;;;;;5010609;28;20089;-61
2022/04/15 11:11:03;;;;;;;7.07;2.22;;;;;;;;;;5016772;28;20061;-61
2022/04/15 11:13:54;;;;;;;2.58;1.40;;;;;;;;;;5034778;28;20061;-60
2022/04/15 11:16:22;;;;;;;3.67;1.58;;;;;;;;;;5017617;28;20049;-58
2022/04/15 11:18:50;;;;;;;5.10;2.03;;;;;;;;;;5029817;28;20081;-59
2022/04/15 11:21:17;;;;;;;7.00;2.47;;;;;;;;;;5018799;28;20048;-60
2022/04/15 11:23:46;;;;;;;3.13;1.40;;;;;;;;;;5031200;28;20057;-61
2022/04/15 11:26:13;;;;;;;;;;;;;;;;;;5021739;28;20120;-58
2022/04/15 11:28:39;;;;;;;3.83;1.90;;;;;;;;;;5024576;28;19925;-58
2022/04/15 11:31:18;;;;;;;5.20;2.38;;;;;;;;;;5029106;28;20065;-60
2022/04/15 11:33:46;;;;;;;4.78;1.92;;;;;;;;;;5015671;28;20053;-59
2022/04/15 11:36:14;;;;;;;2.38;1.52;;;;;;;;;;5028252;28;20064;-58
2022/04/15 11:38:43;;;;;;;5.38;1.58;;;;;;;;;;5012669;28;20139;-61
2022/04/15 11:41:10;;;;;;;4.50;1.73;;;;;;;;;;5028485;28;20052;-60
2022/04/15 11:43:37;;;;;;;7.70;2.55;;;;;;;;;;5021393;28;20095;-58
2022/04/15 11:46:04;;;;;;;3.60;1.88;;;;;;;;;;5028509;28;20056;-60
2022/04/15 11:48:30;;;;;;;7.45;2.50;;;;;;;;;;5026824;28;20067;-61
2022/04/15 11:50:58;;;;;;;5.07;2.13;;;;;;;;;;5016622;28;20111;-59
2022/04/15 11:53:25;;;;;;;3.55;1.75;;;;;;;;;;5045987;28;20053;-59
2022/04/15 11:55:52;;;;;;;4.35;1.80;;;;;;;;;;5016833;28;20057;-59
2022/04/15 11:58:20;;;;;;;2.22;1.52;;;;;;;;;;5027676;28;20041;-58
2022/04/15 12:00:53;;;;;;;4.20;2.03;;;;;;;;;;5020582;28;20080;-62
2022/04/15 12:03:20;;;;;;;4.25;1.95;;;;;;;;;;5035997;28;20149;-60
2022/04/15 12:05:47;;;;;;;4.85;2.00;;;;;;;;;;4998100;28;20056;-61
2022/04/15 12:08:15;;;;;;;6.13;2.28;;;;;;;;;;4995614;28;20053;-61
2022/04/15 12:10:42;;;;;;;6.63;2.67;;;;;;;;;;4998752;28;20050;-59
2022/04/15 12:13:09;;;;;;;3.65;1.70;;;;;;;;;;4991516;28;20056;-62
2022/04/15 12:15:36;;;;;;;5.53;2.38;;;;;;;;;;4980348;28;20046;-59
2022/04/15 12:18:03;;;;;;;6.20;2.03;;;;;;;;;;5004480;28;20049;-60
2022/04/15 12:20:30;;;;;;;4.15;2.00;;;;;;;;;;5006813;28;20053;-61
2022/04/15 12:22:56;;;;;;;5.25;2.45;;;;;;;;;;5031075;28;20037;-63
2022/04/15 12:25:25;;;;;;;5.75;2.33;;;;;;;;;;5008438;28;20068;-61
2022/04/15 12:27:53;;;;;;;5.15;2.22;;;;;;;;;;5000172;28;20106;-61
2022/04/15 12:30:34;;;;;;;6.75;2.42;;;;;;;;;;5005629;28;20053;-62
2022/04/15 12:33:07;;;;;;;6.97;2.50;;;;;;;;;;5012209;28;20057;-62
2022/04/15 12:35:35;;;;;;;6.22;2.95;;;;;;;;;;5023122;28;20057;-62
2022/04/15 12:38:02;;;;;;;7.35;2.70;;;;;;;;;;5013690;28;20099;-61
2022/04/15 12:40:31;;;;;;;3.90;1.80;;;;;;;;;;5023821;28;20076;-60
2022/04/15 12:43:08;;;;;;;6.10;2.60;;;;;;;;;;5011593;28;20076;-61
2022/04/15 12:45:47;;;;;;;4.97;2.30;;;;;;;;;;5024011;28;20088;-60
2022/04/15 12:48:14;;;;;;;5.47;1.90;;;;;;;;;;5011501;28;20079;-59
2022/04/15 12:50:45;;;;;;;4.93;1.90;;;;;;;;;;5020658;28;20113;-59
2022/04/15 12:53:13;;;;;;;5.47;1.90;;;;;;;;;;5012491;28;20057;-63
2022/04/15 12:55:40;;;;;;;;;;;;;;;;;;5023309;28;20049;-58
2022/04/15 12:58:17;;;;;;;7.10;2.70;;;;;;;;;;5012286;28;19925;-62
2022/04/15 13:00:44;;;;;;;6.20;2.80;;;;;;;;;;5015186;28;20058;-60
2022/04/15 13:03:10;;;;;;;7.57;3.00;;;;;;;;;;5012462;28;20053;-59
2022/04/15 13:05:37;;;;;;;8.23;3.35;;;;;;;;;;5006904;28;20049;-59
2022/04/15 13:08:03;;;;;;;3.58;1.92;;;;;;;;;;5012073;28;20060;-59
2022/04/15 13:10:30;;;;;;;3.10;1.75;;;;;;;;;;5007488;28;20137;-60
2022/04/15 13:12:57;;;;;;;8.25;2.60;;;;;;;;;;5010876;28;20076;-58
2022/04/15 13:15:25;;;;;;;5.07;2.20;;;;;;;;;;5028473;28;20061;-60
2022/04/15 13:17:51;;;;;;;4.40;1.95;;;;;;;;;;5005505;28;20053;-60
2022/04/15 13:20:18;;;;;;;4.10;1.92;;;;;;;;;;5010182;28;20077;-59
2022/04/15 13:22:45;;;;;;;5.90;2.38;;;;;;;;;;5021940;28;20088;-58
2022/04/15 13:25:11;;;;;;;3.92;1.95;;;;;;;;;;5028475;28;20107;-58
2022/04/15 13:27:38;;;;;;;11.43;2.83;;;;;;;;;;5006009;28;20070;-61
2022/04/15 13:30:05;;;;;;;5.10;2.55;;;;;;;;;;5010669;28;20050;-58
2022/04/15 13:32:33;;;;;;;6.53;2.28;;;;;;;;;;5020342;28;20064;-58
2022/04/15 13:35:00;;;;;;;6.50;2.63;;;;;;;;;;5007840;28;20060;-60
2022/04/15 13:37:27;;;;;;;5.93;2.65;;;;;;;;;;4993673;28;20065;-57
2022/04/15 13:39:53;;;;;;;5.93;2.67;;;;;;;;;;5011469;28;20053;-58
2022/04/15 13:42:20;;;;;;;6.90;2.72;;;;;;;;;;5021157;28;20049;-60
2022/04/15 13:44:47;;;;;;;5.70;2.22;;;;;;;;;;5020262;28;20059;-59
2022/04/15 13:47:15;;;;;;;6.93;2.90;;;;;;;;;;5022502;28;20054;-57
2022/04/15 13:49:48;;;;;;;6.00;2.47;;;;;;;;;;5024516;28;20115;-58
2022/04/15 13:57:45;;;;;;;7.28;2.58;;;;;;;;;;5013762;28;20053;-58
2022/04/15 14:00:12;;;;;;;6.78;2.85;;;;;;;;;;5027661;28;20072;-59
2022/04/15 14:02:39;;;;;;;6.63;2.33;;;;;;;;;;5021065;28;20060;-60
2022/04/15 14:05:07;;;;;;;6.82;2.72;;;;;;;;;;5028222;28;20147;-61
2022/04/15 14:07:34;;;;;;;;;;;;;;;;;;5025747;28;20054;-64
2022/04/15 14:10:00;;;;;;;7.72;2.70;;;;;;;;;;5005559;28;19925;-59
2022/04/15 14:12:27;;;;;;;6.65;2.50;;;;;;;;;;5012447;28;20061;-61
2022/04/15 14:14:54;;;;;;;5.15;2.60;;;;;;;;;;4995054;28;20053;-58
2022/04/15 14:17:21;;;;;;;7.22;2.85;;;;;;;;;;5027843;28;20052;-64
2022/04/15 14:19:48;;;;;;;6.15;2.58;;;;;;;;;;5004412;28;20115;-60
2022/04/15 14:22:16;;;;;;;4.80;2.40;;;;;;;;;;5027934;28;20049;-60
2022/04/15 14:24:42;;;;;;;7.65;3.22;;;;;;;;;;5004499;28;20049;-60
2022/04/15 14:27:12;;;;;;;6.25;2.70;;;;;;;;;;5027285;28;20061;-58
2022/04/15 14:29:39;;;;;;;7.63;2.70;;;;;;;;;;5021893;28;20058;-58
2022/04/15 14:32:06;;;;;;;6.80;2.30;;;;;;;;;;5009483;28;20053;-60
2022/04/15 14:34:32;;;;;;;4.63;1.90;;;;;;;;;;5018552;28;20068;-58
2022/04/15 14:36:59;;;;;;;3.72;1.95;;;;;;;;;;5029343;28;20054;-58
2022/04/15 14:39:28;;;;;;;5.47;2.47;;;;;;;;;;5005780;28;20095;-60
2022/04/15 14:41:55;;;;;;;4.28;2.25;;;;;;;;;;5009433;28;20054;-61
2022/04/15 14:44:21;;;;;;;6.22;2.70;;;;;;;;;;5005348;28;20050;-61
2022/04/15 14:46:48;;;;;;;5.55;2.65;;;;;;;;;;5012131;28;20061;-59
2022/04/15 14:49:14;;;;;;;7.22;2.38;;;;;;;;;;5011265;28;20046;-60
2022/04/15 14:51:41;;;;;;;5.70;2.58;;;;;;;;;;4989435;28;20060;-59
2022/04/15 14:54:07;;;;;;;5.20;2.08;;;;;;;;;;5045311;28;20045;-59